sensor_id;sensor_type;location;lat;lon;timestamp;temperature;humidity
7686;DHT22;3885;51.474;-2.576;2023-01-31T00:03:36;6.30;99.90
7686;DHT22;3885;51.474;-2.576;2023-01-31T00:06:13;6.30;99.90
7686;DHT22;3885;51.474;-2.576;2023-01-31T00:08:40;6.40;99.90
7686;DHT22;3885;51.474;-2.576;2023-01-31T00:11:07;6.40;99.90
7686;DHT22;3885;51.474;-2.576;2023-01-31T00:13:35;6.50;99.90
7686;DHT22;3885;51.474;-2.576;2023-01-31T00:16:02;6.50;99.90
7686;DHT22;3885;51.474;-2.576;2023-01-31T00:18:29;6.50;99.90
7686;DHT22;3885;51.474;-2.576;2023-01-31T00:20:56;6.50;99.90
7686;DHT22;3885;51.474;-2.576;2023-01-31T00:23:25;6.60;99.90
7686;DHT22;3885;51.474;-2.576;2023-01-31T00:28:19;6.60;99.90
7686;DHT22;3885;51.474;-2.576;2023-01-31T00:30:46;6.60;99.90
7686;DHT22;3885;51.474;-2.576;2023-01-31T00:33:13;6.60;99.90
7686;DHT22;3885;51.474;-2.576;2023-01-31T00:35:40;6.60;99.90
7686;DHT22;3885;51.474;-2.576;2023-01-31T00:38:07;6.60;99.90
7686;DHT22;3885;51.474;-2.576;2023-01-31T00:40:35;6.60;99.90
7686;DHT22;3885;51.474;-2.576;2023-01-31T00:43:02;6.50;99.90
7686;DHT22;3885;51.474;-2.576;2023-01-31T00:47:56;6.50;99.90
7686;DHT22;3885;51.474;-2.576;2023-01-31T00:50:23;6.50;99.90
7686;DHT22;3885;51.474;-2.576;2023-01-31T00:52:50;6.50;99.90
7686;DHT22;3885;51.474;-2.576;2023-01-31T00:55:17;6.50;99.90
7686;DHT22;3885;51.474;-2.576;2023-01-31T00:57:45;6.50;99.90
7686;DHT22;3885;51.474;-2.576;2023-01-31T01:00:13;6.50;99.90
7686;DHT22;3885;51.474;-2.576;2023-01-31T01:02:40;6.50;99.90
7686;DHT22;3885;51.474;-2.576;2023-01-31T01:05:07;6.50;99.90
7686;DHT22;3885;51.474;-2.576;2023-01-31T01:07:34;6.50;99.90
7686;DHT22;3885;51.474;-2.576;2023-01-31T01:10:02;6.50;99.90
7686;DHT22;3885;51.474;-2.576;2023-01-31T01:12:29;6.60;99.90
7686;DHT22;3885;51.474;-2.576;2023-01-31T01:14:57;6.50;99.90
7686;DHT22;3885;51.474;-2.576;2023-01-31T01:17:24;6.50;99.90
7686;DHT22;3885;51.474;-2.576;2023-01-31T01:19:51;6.50;99.90
7686;DHT22;3885;51.474;-2.576;2023-01-31T01:24:46;6.50;99.90
7686;DHT22;3885;51.474;-2.576;2023-01-31T01:27:13;6.50;99.90
7686;DHT22;3885;51.474;-2.576;2023-01-31T01:29:40;6.50;99.90
7686;DHT22;3885;51.474;-2.576;2023-01-31T01:32:08;6.50;99.90
7686;DHT22;3885;51.474;-2.576;2023-01-31T01:34:35;6.60;99.90
7686;DHT22;3885;51.474;-2.576;2023-01-31T01:37:03;6.60;99.90
7686;DHT22;3885;51.474;-2.576;2023-01-31T01:42:04;6.70;99.90
7686;DHT22;3885;51.474;-2.576;2023-01-31T01:49:58;6.70;99.90
7686;DHT22;3885;51.474;-2.576;2023-01-31T01:52:29;6.70;99.90
7686;DHT22;3885;51.474;-2.576;2023-01-31T01:55:00;6.80;99.90
7686;DHT22;3885;51.474;-2.576;2023-01-31T01:57:31;6.70;99.90
7686;DHT22;3885;51.474;-2.576;2023-01-31T02:00:06;6.80;99.90
7686;DHT22;3885;51.474;-2.576;2023-01-31T02:02:36;6.80;99.90
7686;DHT22;3885;51.474;-2.576;2023-01-31T02:07:30;6.90;99.90
7686;DHT22;3885;51.474;-2.576;2023-01-31T02:12:28;6.90;99.90
7686;DHT22;3885;51.474;-2.576;2023-01-31T02:14:56;7.00;99.90
7686;DHT22;3885;51.474;-2.576;2023-01-31T02:17:23;7.00;99.90
7686;DHT22;3885;51.474;-2.576;2023-01-31T02:19:59;7.00;99.90
7686;DHT22;3885;51.474;-2.576;2023-01-31T02:22:33;7.00;99.90
7686;DHT22;3885;51.474;-2.576;2023-01-31T02:25:39;6.90;99.90
7686;DHT22;3885;51.474;-2.576;2023-01-31T02:31:13;6.90;99.90
7686;DHT22;3885;51.474;-2.576;2023-01-31T02:33:50;6.90;99.90
7686;DHT22;3885;51.474;-2.576;2023-01-31T02:36:26;6.90;99.90
7686;DHT22;3885;51.474;-2.576;2023-01-31T02:41:31;7.00;99.90
7686;DHT22;3885;51.474;-2.576;2023-01-31T02:46:50;7.00;99.90
7686;DHT22;3885;51.474;-2.576;2023-01-31T02:49:26;7.00;99.90
7686;DHT22;3885;51.474;-2.576;2023-01-31T02:52:07;7.00;99.90
7686;DHT22;3885;51.474;-2.576;2023-01-31T02:54:48;7.00;99.90
7686;DHT22;3885;51.474;-2.576;2023-01-31T02:57:35;6.90;99.90
7686;DHT22;3885;51.474;-2.576;2023-01-31T03:00:03;6.90;99.90
7686;DHT22;3885;51.474;-2.576;2023-01-31T03:07:30;7.00;99.90
7686;DHT22;3885;51.474;-2.576;2023-01-31T03:15:16;6.90;99.90
7686;DHT22;3885;51.474;-2.576;2023-01-31T03:17:57;6.90;99.90
7686;DHT22;3885;51.474;-2.576;2023-01-31T03:20:29;6.80;99.90
7686;DHT22;3885;51.474;-2.576;2023-01-31T03:23:03;6.90;99.90
7686;DHT22;3885;51.474;-2.576;2023-01-31T03:25:34;6.90;99.90
7686;DHT22;3885;51.474;-2.576;2023-01-31T03:28:03;6.90;99.90
7686;DHT22;3885;51.474;-2.576;2023-01-31T03:33:07;7.00;99.90
7686;DHT22;3885;51.474;-2.576;2023-01-31T03:35:39;7.00;99.90
7686;DHT22;3885;51.474;-2.576;2023-01-31T03:38:12;7.10;99.90
7686;DHT22;3885;51.474;-2.576;2023-01-31T03:40:45;7.10;99.90
7686;DHT22;3885;51.474;-2.576;2023-01-31T03:43:19;7.10;99.90
7686;DHT22;3885;51.474;-2.576;2023-01-31T03:45:50;7.20;99.90
7686;DHT22;3885;51.474;-2.576;2023-01-31T03:50:52;7.20;99.90
7686;DHT22;3885;51.474;-2.576;2023-01-31T03:53:23;7.20;99.90
7686;DHT22;3885;51.474;-2.576;2023-01-31T03:55:56;7.20;99.90
7686;DHT22;3885;51.474;-2.576;2023-01-31T03:58:27;7.20;99.90
7686;DHT22;3885;51.474;-2.576;2023-01-31T04:00:55;7.30;99.90
7686;DHT22;3885;51.474;-2.576;2023-01-31T04:05:55;7.30;99.90
7686;DHT22;3885;51.474;-2.576;2023-01-31T04:08:23;7.20;99.90
7686;DHT22;3885;51.474;-2.576;2023-01-31T04:10:50;7.20;99.90
7686;DHT22;3885;51.474;-2.576;2023-01-31T04:13:17;7.30;99.90
7686;DHT22;3885;51.474;-2.576;2023-01-31T04:15:44;7.30;99.90
7686;DHT22;3885;51.474;-2.576;2023-01-31T04:18:11;7.30;99.90
7686;DHT22;3885;51.474;-2.576;2023-01-31T04:20:38;7.20;99.90
7686;DHT22;3885;51.474;-2.576;2023-01-31T04:23:06;7.30;99.90
7686;DHT22;3885;51.474;-2.576;2023-01-31T04:25:33;7.30;99.90
7686;DHT22;3885;51.474;-2.576;2023-01-31T04:28:00;7.30;99.90
7686;DHT22;3885;51.474;-2.576;2023-01-31T04:30:27;7.30;99.90
7686;DHT22;3885;51.474;-2.576;2023-01-31T04:32:54;7.30;99.90
7686;DHT22;3885;51.474;-2.576;2023-01-31T04:35:21;7.20;99.90
7686;DHT22;3885;51.474;-2.576;2023-01-31T04:40:16;7.30;99.90
7686;DHT22;3885;51.474;-2.576;2023-01-31T04:42:43;7.30;99.90
7686;DHT22;3885;51.474;-2.576;2023-01-31T04:45:11;7.30;99.90
7686;DHT22;3885;51.474;-2.576;2023-01-31T04:50:06;7.30;99.90
7686;DHT22;3885;51.474;-2.576;2023-01-31T04:55:01;7.30;99.90
7686;DHT22;3885;51.474;-2.576;2023-01-31T04:57:29;7.30;99.90
7686;DHT22;3885;51.474;-2.576;2023-01-31T04:59:56;7.40;99.90
7686;DHT22;3885;51.474;-2.576;2023-01-31T05:02:23;7.40;99.90
7686;DHT22;3885;51.474;-2.576;2023-01-31T05:04:50;7.40;99.90
7686;DHT22;3885;51.474;-2.576;2023-01-31T05:07:17;7.40;99.90
7686;DHT22;3885;51.474;-2.576;2023-01-31T05:09:44;7.40;99.90
7686;DHT22;3885;51.474;-2.576;2023-01-31T05:12:11;7.40;99.90
7686;DHT22;3885;51.474;-2.576;2023-01-31T05:14:39;7.40;99.90
7686;DHT22;3885;51.474;-2.576;2023-01-31T05:17:06;7.50;99.90
7686;DHT22;3885;51.474;-2.576;2023-01-31T05:22:00;7.50;99.90
7686;DHT22;3885;51.474;-2.576;2023-01-31T05:24:29;7.50;99.90
7686;DHT22;3885;51.474;-2.576;2023-01-31T05:26:57;7.50;99.90
7686;DHT22;3885;51.474;-2.576;2023-01-31T05:29:25;7.50;99.90
7686;DHT22;3885;51.474;-2.576;2023-01-31T05:34:24;7.60;99.90
7686;DHT22;3885;51.474;-2.576;2023-01-31T05:36:51;7.70;99.90
7686;DHT22;3885;51.474;-2.576;2023-01-31T05:39:18;7.70;99.90
7686;DHT22;3885;51.474;-2.576;2023-01-31T05:41:46;7.90;99.90
7686;DHT22;3885;51.474;-2.576;2023-01-31T05:44:13;7.90;99.90
7686;DHT22;3885;51.474;-2.576;2023-01-31T05:46:40;7.90;99.90
7686;DHT22;3885;51.474;-2.576;2023-01-31T05:49:09;8.00;99.90
7686;DHT22;3885;51.474;-2.576;2023-01-31T05:51:36;8.10;99.90
7686;DHT22;3885;51.474;-2.576;2023-01-31T05:54:03;8.10;99.90
7686;DHT22;3885;51.474;-2.576;2023-01-31T05:56:31;8.20;99.90
7686;DHT22;3885;51.474;-2.576;2023-01-31T05:58:58;8.30;99.90
7686;DHT22;3885;51.474;-2.576;2023-01-31T06:06:23;8.40;99.90
7686;DHT22;3885;51.474;-2.576;2023-01-31T06:08:50;8.40;99.90
7686;DHT22;3885;51.474;-2.576;2023-01-31T06:11:17;8.50;99.90
7686;DHT22;3885;51.474;-2.576;2023-01-31T06:16:11;8.60;99.90
7686;DHT22;3885;51.474;-2.576;2023-01-31T06:18:38;8.60;99.90
7686;DHT22;3885;51.474;-2.576;2023-01-31T06:23:34;8.70;99.90
7686;DHT22;3885;51.474;-2.576;2023-01-31T06:26:01;8.70;99.90
7686;DHT22;3885;51.474;-2.576;2023-01-31T06:28:28;8.70;99.90
7686;DHT22;3885;51.474;-2.576;2023-01-31T06:30:55;8.70;99.90
7686;DHT22;3885;51.474;-2.576;2023-01-31T06:33:22;8.70;99.90
7686;DHT22;3885;51.474;-2.576;2023-01-31T06:35:48;8.70;99.90
7686;DHT22;3885;51.474;-2.576;2023-01-31T06:38:15;8.80;99.90
7686;DHT22;3885;51.474;-2.576;2023-01-31T06:40:44;8.80;99.90
7686;DHT22;3885;51.474;-2.576;2023-01-31T06:43:10;8.80;99.90
7686;DHT22;3885;51.474;-2.576;2023-01-31T06:45:37;8.80;99.90
7686;DHT22;3885;51.474;-2.576;2023-01-31T06:48:04;8.80;99.90
7686;DHT22;3885;51.474;-2.576;2023-01-31T06:57:54;8.90;99.90
7686;DHT22;3885;51.474;-2.576;2023-01-31T07:00:22;8.90;99.90
7686;DHT22;3885;51.474;-2.576;2023-01-31T07:02:51;8.90;99.90
7686;DHT22;3885;51.474;-2.576;2023-01-31T07:07:46;8.80;99.90
7686;DHT22;3885;51.474;-2.576;2023-01-31T07:10:14;8.80;99.90
7686;DHT22;3885;51.474;-2.576;2023-01-31T07:12:42;8.90;99.90
7686;DHT22;3885;51.474;-2.576;2023-01-31T07:17:38;8.90;99.90
7686;DHT22;3885;51.474;-2.576;2023-01-31T07:25:00;8.80;99.90
7686;DHT22;3885;51.474;-2.576;2023-01-31T07:27:26;8.80;99.90
7686;DHT22;3885;51.474;-2.576;2023-01-31T07:29:53;8.90;99.90
7686;DHT22;3885;51.474;-2.576;2023-01-31T07:34:49;8.90;99.90
7686;DHT22;3885;51.474;-2.576;2023-01-31T07:37:16;8.90;99.90
7686;DHT22;3885;51.474;-2.576;2023-01-31T07:39:43;9.00;99.90
7686;DHT22;3885;51.474;-2.576;2023-01-31T07:42:10;9.00;99.90
7686;DHT22;3885;51.474;-2.576;2023-01-31T07:44:37;9.00;99.90
7686;DHT22;3885;51.474;-2.576;2023-01-31T07:52:00;9.00;99.90
7686;DHT22;3885;51.474;-2.576;2023-01-31T07:54:27;9.00;99.90
7686;DHT22;3885;51.474;-2.576;2023-01-31T07:56:54;9.00;99.90
7686;DHT22;3885;51.474;-2.576;2023-01-31T07:59:21;9.00;99.90
7686;DHT22;3885;51.474;-2.576;2023-01-31T08:01:48;9.10;99.90
7686;DHT22;3885;51.474;-2.576;2023-01-31T08:09:30;9.00;99.90
7686;DHT22;3885;51.474;-2.576;2023-01-31T08:14:24;9.00;99.90
7686;DHT22;3885;51.474;-2.576;2023-01-31T08:16:53;9.00;99.90
7686;DHT22;3885;51.474;-2.576;2023-01-31T08:19:20;9.00;99.90
7686;DHT22;3885;51.474;-2.576;2023-01-31T08:21:48;9.00;99.90
7686;DHT22;3885;51.474;-2.576;2023-01-31T08:24:15;9.00;99.90
7686;DHT22;3885;51.474;-2.576;2023-01-31T08:26:43;9.00;99.90
7686;DHT22;3885;51.474;-2.576;2023-01-31T08:29:10;9.10;99.90
7686;DHT22;3885;51.474;-2.576;2023-01-31T08:31:39;9.10;99.90
7686;DHT22;3885;51.474;-2.576;2023-01-31T08:34:06;9.20;99.90
7686;DHT22;3885;51.474;-2.576;2023-01-31T08:41:31;9.30;99.90
7686;DHT22;3885;51.474;-2.576;2023-01-31T08:43:58;9.30;99.90
7686;DHT22;3885;51.474;-2.576;2023-01-31T08:46:27;9.30;99.90
7686;DHT22;3885;51.474;-2.576;2023-01-31T08:51:22;9.40;99.90
7686;DHT22;3885;51.474;-2.576;2023-01-31T08:53:49;9.40;99.90
7686;DHT22;3885;51.474;-2.576;2023-01-31T08:58:46;9.50;99.90
7686;DHT22;3885;51.474;-2.576;2023-01-31T09:01:14;9.50;99.90
7686;DHT22;3885;51.474;-2.576;2023-01-31T09:06:13;9.50;99.90
7686;DHT22;3885;51.474;-2.576;2023-01-31T09:08:40;9.40;99.90
7686;DHT22;3885;51.474;-2.576;2023-01-31T09:11:07;9.50;99.90
7686;DHT22;3885;51.474;-2.576;2023-01-31T09:13:35;9.50;99.90
7686;DHT22;3885;51.474;-2.576;2023-01-31T09:16:04;9.50;99.90
7686;DHT22;3885;51.474;-2.576;2023-01-31T09:18:32;9.50;99.90
7686;DHT22;3885;51.474;-2.576;2023-01-31T09:21:02;9.50;99.90
7686;DHT22;3885;51.474;-2.576;2023-01-31T09:23:30;9.50;99.90
7686;DHT22;3885;51.474;-2.576;2023-01-31T09:28:24;9.50;99.90
7686;DHT22;3885;51.474;-2.576;2023-01-31T09:30:53;9.50;99.90
7686;DHT22;3885;51.474;-2.576;2023-01-31T09:33:21;9.60;99.90
7686;DHT22;3885;51.474;-2.576;2023-01-31T09:35:55;9.60;99.90
7686;DHT22;3885;51.474;-2.576;2023-01-31T09:38:23;9.60;99.90
7686;DHT22;3885;51.474;-2.576;2023-01-31T09:40:50;9.60;99.90
7686;DHT22;3885;51.474;-2.576;2023-01-31T09:43:17;9.70;99.90
7686;DHT22;3885;51.474;-2.576;2023-01-31T09:45:46;9.70;99.90
7686;DHT22;3885;51.474;-2.576;2023-01-31T09:48:18;9.70;99.90
7686;DHT22;3885;51.474;-2.576;2023-01-31T09:50:48;9.90;99.90
7686;DHT22;3885;51.474;-2.576;2023-01-31T09:53:18;10.00;99.90
7686;DHT22;3885;51.474;-2.576;2023-01-31T09:55:51;10.10;99.90
7686;DHT22;3885;51.474;-2.576;2023-01-31T09:58:26;10.20;99.90
7686;DHT22;3885;51.474;-2.576;2023-01-31T10:01:04;10.30;99.90
7686;DHT22;3885;51.474;-2.576;2023-01-31T10:06:14;10.40;99.90
7686;DHT22;3885;51.474;-2.576;2023-01-31T10:08:47;10.50;99.90
7686;DHT22;3885;51.474;-2.576;2023-01-31T10:13:57;10.50;99.90
7686;DHT22;3885;51.474;-2.576;2023-01-31T10:19:00;10.80;99.90
7686;DHT22;3885;51.474;-2.576;2023-01-31T10:21:31;10.80;99.90
7686;DHT22;3885;51.474;-2.576;2023-01-31T10:26:32;10.80;99.90
7686;DHT22;3885;51.474;-2.576;2023-01-31T10:29:05;10.80;99.90
7686;DHT22;3885;51.474;-2.576;2023-01-31T10:31:40;10.80;99.90
7686;DHT22;3885;51.474;-2.576;2023-01-31T10:36:43;10.90;99.90
7686;DHT22;3885;51.474;-2.576;2023-01-31T10:41:58;11.10;99.90
7686;DHT22;3885;51.474;-2.576;2023-01-31T10:44:38;11.00;99.90
7686;DHT22;3885;51.474;-2.576;2023-01-31T10:49:39;11.10;99.90
7686;DHT22;3885;51.474;-2.576;2023-01-31T10:52:13;11.10;99.90
7686;DHT22;3885;51.474;-2.576;2023-01-31T10:54:49;11.10;99.90
7686;DHT22;3885;51.474;-2.576;2023-01-31T10:57:19;11.10;99.90
7686;DHT22;3885;51.474;-2.576;2023-01-31T10:59:48;11.00;99.90
7686;DHT22;3885;51.474;-2.576;2023-01-31T11:02:18;11.00;99.90
7686;DHT22;3885;51.474;-2.576;2023-01-31T11:04:49;11.00;99.90
7686;DHT22;3885;51.474;-2.576;2023-01-31T11:07:16;10.90;99.90
7686;DHT22;3885;51.474;-2.576;2023-01-31T11:09:48;10.90;99.90
7686;DHT22;3885;51.474;-2.576;2023-01-31T11:12:16;10.90;99.90
7686;DHT22;3885;51.474;-2.576;2023-01-31T11:14:43;10.80;99.90
7686;DHT22;3885;51.474;-2.576;2023-01-31T11:17:15;10.70;99.90
7686;DHT22;3885;51.474;-2.576;2023-01-31T11:19:44;10.80;99.90
7686;DHT22;3885;51.474;-2.576;2023-01-31T11:22:21;10.70;99.90
7686;DHT22;3885;51.474;-2.576;2023-01-31T11:24:49;10.60;99.90
7686;DHT22;3885;51.474;-2.576;2023-01-31T11:27:24;10.60;99.90
7686;DHT22;3885;51.474;-2.576;2023-01-31T11:29:52;10.60;99.90
7686;DHT22;3885;51.474;-2.576;2023-01-31T11:32:25;10.60;99.90
7686;DHT22;3885;51.474;-2.576;2023-01-31T11:34:57;10.70;99.90
7686;DHT22;3885;51.474;-2.576;2023-01-31T11:37:26;10.60;99.90
7686;DHT22;3885;51.474;-2.576;2023-01-31T11:42:22;10.80;99.90
7686;DHT22;3885;51.474;-2.576;2023-01-31T11:44:54;10.80;99.90
7686;DHT22;3885;51.474;-2.576;2023-01-31T11:49:51;10.80;99.90
7686;DHT22;3885;51.474;-2.576;2023-01-31T11:52:20;10.80;99.90
7686;DHT22;3885;51.474;-2.576;2023-01-31T11:54:51;10.90;99.90
7686;DHT22;3885;51.474;-2.576;2023-01-31T11:57:22;10.90;99.90
7686;DHT22;3885;51.474;-2.576;2023-01-31T11:59:52;10.80;99.90
7686;DHT22;3885;51.474;-2.576;2023-01-31T12:02:26;10.90;99.90
7686;DHT22;3885;51.474;-2.576;2023-01-31T12:04:56;11.00;99.90
7686;DHT22;3885;51.474;-2.576;2023-01-31T12:07:27;11.10;99.90
7686;DHT22;3885;51.474;-2.576;2023-01-31T12:09:56;11.00;99.90
7686;DHT22;3885;51.474;-2.576;2023-01-31T12:12:27;11.00;99.90
7686;DHT22;3885;51.474;-2.576;2023-01-31T12:20:11;11.30;99.90
7686;DHT22;3885;51.474;-2.576;2023-01-31T12:22:47;11.40;99.90
7686;DHT22;3885;51.474;-2.576;2023-01-31T12:25:27;11.40;99.90
7686;DHT22;3885;51.474;-2.576;2023-01-31T12:28:09;11.40;99.90
7686;DHT22;3885;51.474;-2.576;2023-01-31T12:30:54;11.40;99.90
7686;DHT22;3885;51.474;-2.576;2023-01-31T12:33:32;11.40;99.90
7686;DHT22;3885;51.474;-2.576;2023-01-31T12:38:49;11.40;99.90
7686;DHT22;3885;51.474;-2.576;2023-01-31T12:41:27;11.40;99.90
7686;DHT22;3885;51.474;-2.576;2023-01-31T12:44:07;11.40;99.90
7686;DHT22;3885;51.474;-2.576;2023-01-31T12:46:51;11.40;99.90
7686;DHT22;3885;51.474;-2.576;2023-01-31T12:49:55;11.40;99.90
7686;DHT22;3885;51.474;-2.576;2023-01-31T12:52:31;11.40;99.90
7686;DHT22;3885;51.474;-2.576;2023-01-31T12:55:17;11.30;99.90
7686;DHT22;3885;51.474;-2.576;2023-01-31T12:57:54;11.40;99.90
7686;DHT22;3885;51.474;-2.576;2023-01-31T13:05:47;11.40;99.90
7686;DHT22;3885;51.474;-2.576;2023-01-31T13:08:17;11.50;99.90
7686;DHT22;3885;51.474;-2.576;2023-01-31T13:10:46;11.70;99.90
7686;DHT22;3885;51.474;-2.576;2023-01-31T13:13:23;11.70;99.90
7686;DHT22;3885;51.474;-2.576;2023-01-31T13:15:53;11.80;99.90
7686;DHT22;3885;51.474;-2.576;2023-01-31T13:20:53;11.90;99.90
7686;DHT22;3885;51.474;-2.576;2023-01-31T13:23:25;11.80;99.90
7686;DHT22;3885;51.474;-2.576;2023-01-31T13:26:01;11.90;99.90
7686;DHT22;3885;51.474;-2.576;2023-01-31T13:28:33;11.90;99.90
7686;DHT22;3885;51.474;-2.576;2023-01-31T13:31:04;11.80;99.90
7686;DHT22;3885;51.474;-2.576;2023-01-31T13:33:35;11.70;99.90
7686;DHT22;3885;51.474;-2.576;2023-01-31T13:36:10;11.70;99.90
7686;DHT22;3885;51.474;-2.576;2023-01-31T13:38:42;11.60;99.90
7686;DHT22;3885;51.474;-2.576;2023-01-31T13:43:42;11.60;99.90
7686;DHT22;3885;51.474;-2.576;2023-01-31T13:46:10;11.60;99.90
7686;DHT22;3885;51.474;-2.576;2023-01-31T13:48:41;11.60;99.90
7686;DHT22;3885;51.474;-2.576;2023-01-31T13:51:13;11.70;99.90
7686;DHT22;3885;51.474;-2.576;2023-01-31T13:53:46;11.70;99.90
7686;DHT22;3885;51.474;-2.576;2023-01-31T13:56:21;11.70;99.90
7686;DHT22;3885;51.474;-2.576;2023-01-31T13:58:51;11.70;99.90
7686;DHT22;3885;51.474;-2.576;2023-01-31T14:01:20;11.70;99.90
7686;DHT22;3885;51.474;-2.576;2023-01-31T14:04:25;11.70;99.90
7686;DHT22;3885;51.474;-2.576;2023-01-31T14:10:24;11.70;99.90
7686;DHT22;3885;51.474;-2.576;2023-01-31T14:13:24;11.70;99.90
7686;DHT22;3885;51.474;-2.576;2023-01-31T14:15:54;11.70;99.90
7686;DHT22;3885;51.474;-2.576;2023-01-31T14:18:41;11.70;99.90
7686;DHT22;3885;51.474;-2.576;2023-01-31T14:21:41;11.60;99.90
7686;DHT22;3885;51.474;-2.576;2023-01-31T14:24:18;11.50;99.90
7686;DHT22;3885;51.474;-2.576;2023-01-31T14:26:52;11.50;99.90
7686;DHT22;3885;51.474;-2.576;2023-01-31T14:29:21;11.50;99.90
7686;DHT22;3885;51.474;-2.576;2023-01-31T14:31:52;11.40;99.90
7686;DHT22;3885;51.474;-2.576;2023-01-31T14:34:22;11.40;99.90
7686;DHT22;3885;51.474;-2.576;2023-01-31T14:37:00;11.40;99.90
7686;DHT22;3885;51.474;-2.576;2023-01-31T14:42:32;11.40;99.90
7686;DHT22;3885;51.474;-2.576;2023-01-31T14:45:22;11.40;99.90
7686;DHT22;3885;51.474;-2.576;2023-01-31T14:50:40;11.40;99.90
7686;DHT22;3885;51.474;-2.576;2023-01-31T14:53:29;11.40;99.90
7686;DHT22;3885;51.474;-2.576;2023-01-31T14:56:10;11.30;99.90
7686;DHT22;3885;51.474;-2.576;2023-01-31T14:58:41;11.20;99.90
7686;DHT22;3885;51.474;-2.576;2023-01-31T15:01:09;11.10;99.90
7686;DHT22;3885;51.474;-2.576;2023-01-31T15:03:47;11.10;99.90
7686;DHT22;3885;51.474;-2.576;2023-01-31T15:06:21;11.00;99.90
7686;DHT22;3885;51.474;-2.576;2023-01-31T15:09:15;11.00;99.90
7686;DHT22;3885;51.474;-2.576;2023-01-31T15:11:42;10.80;99.90
7686;DHT22;3885;51.474;-2.576;2023-01-31T15:14:31;10.80;99.90
7686;DHT22;3885;51.474;-2.576;2023-01-31T15:17:02;10.80;99.90
7686;DHT22;3885;51.474;-2.576;2023-01-31T15:19:34;10.70;99.90
7686;DHT22;3885;51.474;-2.576;2023-01-31T15:22:07;10.80;99.90
7686;DHT22;3885;51.474;-2.576;2023-01-31T15:24:37;10.70;99.90
7686;DHT22;3885;51.474;-2.576;2023-01-31T15:27:10;10.60;99.90
7686;DHT22;3885;51.474;-2.576;2023-01-31T15:29:48;10.60;99.90
7686;DHT22;3885;51.474;-2.576;2023-01-31T15:32:19;10.50;99.90
7686;DHT22;3885;51.474;-2.576;2023-01-31T15:34:53;10.60;99.90
7686;DHT22;3885;51.474;-2.576;2023-01-31T15:39:53;10.50;99.90
7686;DHT22;3885;51.474;-2.576;2023-01-31T15:42:24;10.50;99.90
7686;DHT22;3885;51.474;-2.576;2023-01-31T15:45:11;10.40;99.90
7686;DHT22;3885;51.474;-2.576;2023-01-31T15:47:39;10.30;99.90
7686;DHT22;3885;51.474;-2.576;2023-01-31T15:50:14;10.30;99.90
7686;DHT22;3885;51.474;-2.576;2023-01-31T15:52:42;10.40;99.90
7686;DHT22;3885;51.474;-2.576;2023-01-31T15:55:12;10.30;99.90
7686;DHT22;3885;51.474;-2.576;2023-01-31T15:57:43;10.20;99.90
7686;DHT22;3885;51.474;-2.576;2023-01-31T16:02:45;10.20;99.90
7686;DHT22;3885;51.474;-2.576;2023-01-31T16:05:19;10.00;99.90
7686;DHT22;3885;51.474;-2.576;2023-01-31T16:07:46;10.00;99.90
7686;DHT22;3885;51.474;-2.576;2023-01-31T16:12:45;9.90;99.90
7686;DHT22;3885;51.474;-2.576;2023-01-31T16:17:44;9.70;99.90
7686;DHT22;3885;51.474;-2.576;2023-01-31T16:20:41;9.60;99.90
7686;DHT22;3885;51.474;-2.576;2023-01-31T16:23:27;9.60;99.90
7686;DHT22;3885;51.474;-2.576;2023-01-31T16:26:13;9.50;99.90
7686;DHT22;3885;51.474;-2.576;2023-01-31T16:28:42;9.50;99.90
7686;DHT22;3885;51.474;-2.576;2023-01-31T16:31:12;9.50;99.90
7686;DHT22;3885;51.474;-2.576;2023-01-31T16:33:46;9.40;99.90
7686;DHT22;3885;51.474;-2.576;2023-01-31T16:36:23;9.30;99.90
7686;DHT22;3885;51.474;-2.576;2023-01-31T16:38:55;9.30;99.90
7686;DHT22;3885;51.474;-2.576;2023-01-31T16:41:40;9.20;99.90
7686;DHT22;3885;51.474;-2.576;2023-01-31T16:44:11;9.20;99.90
7686;DHT22;3885;51.474;-2.576;2023-01-31T16:49:18;9.00;99.90
7686;DHT22;3885;51.474;-2.576;2023-01-31T16:51:48;9.00;99.90
7686;DHT22;3885;51.474;-2.576;2023-01-31T16:59:39;8.80;99.90
7686;DHT22;3885;51.474;-2.576;2023-01-31T17:02:15;8.80;99.90
7686;DHT22;3885;51.474;-2.576;2023-01-31T17:07:19;8.80;99.90
7686;DHT22;3885;51.474;-2.576;2023-01-31T17:09:47;8.70;99.90
7686;DHT22;3885;51.474;-2.576;2023-01-31T17:12:21;8.70;99.90
7686;DHT22;3885;51.474;-2.576;2023-01-31T17:14:49;8.60;99.90
7686;DHT22;3885;51.474;-2.576;2023-01-31T17:17:22;8.50;99.90
7686;DHT22;3885;51.474;-2.576;2023-01-31T17:19:48;8.40;99.90
7686;DHT22;3885;51.474;-2.576;2023-01-31T17:24:44;8.10;99.90
7686;DHT22;3885;51.474;-2.576;2023-01-31T17:27:13;8.10;99.90
7686;DHT22;3885;51.474;-2.576;2023-01-31T17:29:41;8.00;99.90
7686;DHT22;3885;51.474;-2.576;2023-01-31T17:34:38;8.00;99.90
7686;DHT22;3885;51.474;-2.576;2023-01-31T17:37:05;8.00;99.90
7686;DHT22;3885;51.474;-2.576;2023-01-31T17:42:01;7.80;99.90
7686;DHT22;3885;51.474;-2.576;2023-01-31T17:46:56;7.70;99.90
7686;DHT22;3885;51.474;-2.576;2023-01-31T17:51:50;7.70;99.90
7686;DHT22;3885;51.474;-2.576;2023-01-31T17:54:17;7.60;99.90
7686;DHT22;3885;51.474;-2.576;2023-01-31T17:56:45;7.60;99.90
7686;DHT22;3885;51.474;-2.576;2023-01-31T17:59:12;7.40;99.90
7686;DHT22;3885;51.474;-2.576;2023-01-31T18:06:34;7.10;99.90
7686;DHT22;3885;51.474;-2.576;2023-01-31T18:09:02;7.00;99.90
7686;DHT22;3885;51.474;-2.576;2023-01-31T18:11:29;6.90;99.90
7686;DHT22;3885;51.474;-2.576;2023-01-31T18:13:58;6.80;99.90
7686;DHT22;3885;51.474;-2.576;2023-01-31T18:16:25;6.70;99.90
7686;DHT22;3885;51.474;-2.576;2023-01-31T18:18:52;6.60;99.90
7686;DHT22;3885;51.474;-2.576;2023-01-31T18:23:48;6.30;99.90
7686;DHT22;3885;51.474;-2.576;2023-01-31T18:26:15;6.30;99.90
7686;DHT22;3885;51.474;-2.576;2023-01-31T18:31:12;6.00;99.90
7686;DHT22;3885;51.474;-2.576;2023-01-31T18:33:40;5.90;99.90
7686;DHT22;3885;51.474;-2.576;2023-01-31T18:36:10;5.80;99.90
7686;DHT22;3885;51.474;-2.576;2023-01-31T18:38:39;5.60;99.90
7686;DHT22;3885;51.474;-2.576;2023-01-31T18:43:34;5.50;99.90
7686;DHT22;3885;51.474;-2.576;2023-01-31T18:46:02;5.40;99.90
7686;DHT22;3885;51.474;-2.576;2023-01-31T18:48:31;5.30;99.90
7686;DHT22;3885;51.474;-2.576;2023-01-31T18:53:32;5.30;99.90
7686;DHT22;3885;51.474;-2.576;2023-01-31T18:55:59;5.40;99.90
7686;DHT22;3885;51.474;-2.576;2023-01-31T18:58:30;5.40;99.90
7686;DHT22;3885;51.474;-2.576;2023-01-31T19:01:04;5.60;99.90
7686;DHT22;3885;51.474;-2.576;2023-01-31T19:03:33;5.60;99.90
7686;DHT22;3885;51.474;-2.576;2023-01-31T19:06:05;5.70;99.90
7686;DHT22;3885;51.474;-2.576;2023-01-31T19:11:04;5.80;99.90
7686;DHT22;3885;51.474;-2.576;2023-01-31T19:13:31;5.90;99.90
7686;DHT22;3885;51.474;-2.576;2023-01-31T19:15:59;5.90;99.90
7686;DHT22;3885;51.474;-2.576;2023-01-31T19:18:26;5.90;99.90
7686;DHT22;3885;51.474;-2.576;2023-01-31T19:20:54;5.90;99.90
7686;DHT22;3885;51.474;-2.576;2023-01-31T19:23:21;5.90;99.90
7686;DHT22;3885;51.474;-2.576;2023-01-31T19:28:15;6.20;99.90
7686;DHT22;3885;51.474;-2.576;2023-01-31T19:30:48;6.20;99.90
7686;DHT22;3885;51.474;-2.576;2023-01-31T19:40:38;6.80;99.90
7686;DHT22;3885;51.474;-2.576;2023-01-31T19:43:05;6.80;99.90
7686;DHT22;3885;51.474;-2.576;2023-01-31T19:45:32;6.90;99.90
7686;DHT22;3885;51.474;-2.576;2023-01-31T19:47:59;7.00;99.90
7686;DHT22;3885;51.474;-2.576;2023-01-31T19:52:53;7.20;99.90
7686;DHT22;3885;51.474;-2.576;2023-01-31T19:55:22;7.30;99.90
7686;DHT22;3885;51.474;-2.576;2023-01-31T20:02:43;7.40;99.90
7686;DHT22;3885;51.474;-2.576;2023-01-31T20:05:11;7.40;99.90
7686;DHT22;3885;51.474;-2.576;2023-01-31T20:12:37;7.40;99.90
7686;DHT22;3885;51.474;-2.576;2023-01-31T20:15:05;7.40;99.90
7686;DHT22;3885;51.474;-2.576;2023-01-31T20:17:32;7.30;99.90
7686;DHT22;3885;51.474;-2.576;2023-01-31T20:22:28;7.30;99.90